sensor_id;sensor_type;location;lat;lon;timestamp;P1;durP1;ratioP1;P2;durP2;ratioP2
74612;SDS011;63119;51.788;8.824;2023-07-20T00:01:29;7.67;;;4.30;;
74612;SDS011;63119;51.788;8.824;2023-07-20T00:03:55;8.30;;;4.60;;
74612;SDS011;63119;51.788;8.824;2023-07-20T00:06:20;8.80;;;4.13;;
74612;SDS011;63119;51.788;8.824;2023-07-20T00:08:47;6.30;;;4.40;;
74612;SDS011;63119;51.788;8.824;2023-07-20T00:11:13;7.18;;;4.05;;
74612;SDS011;63119;51.788;8.824;2023-07-20T00:13:38;9.52;;;4.80;;
74612;SDS011;63119;51.788;8.824;2023-07-20T00:16:04;7.88;;;5.40;;
74612;SDS011;63119;51.788;8.824;2023-07-20T00:18:29;6.55;;;4.35;;
74612;SDS011;63119;51.788;8.824;2023-07-20T00:20:55;6.10;;;3.73;;
74612;SDS011;63119;51.788;8.824;2023-07-20T00:23:20;4.87;;;4.17;;
74612;SDS011;63119;51.788;8.824;2023-07-20T00:25:47;6.60;;;4.30;;
74612;SDS011;63119;51.788;8.824;2023-07-20T00:28:13;5.90;;;4.53;;
74612;SDS011;63119;51.788;8.824;2023-07-20T00:30:38;9.23;;;4.80;;
74612;SDS011;63119;51.788;8.824;2023-07-20T00:33:04;6.80;;;4.50;;
74612;SDS011;63119;51.788;8.824;2023-07-20T00:35:29;7.73;;;5.13;;
74612;SDS011;63119;51.788;8.824;2023-07-20T00:37:55;5.97;;;5.00;;
74612;SDS011;63119;51.788;8.824;2023-07-20T00:40:20;6.90;;;4.70;;
74612;SDS011;63119;51.788;8.824;2023-07-20T00:42:45;6.00;;;3.63;;
74612;SDS011;63119;51.788;8.824;2023-07-20T00:45:11;4.88;;;3.70;;
74612;SDS011;63119;51.788;8.824;2023-07-20T00:47:36;5.53;;;3.67;;
74612;SDS011;63119;51.788;8.824;2023-07-20T00:50:02;4.68;;;3.85;;
74612;SDS011;63119;51.788;8.824;2023-07-20T00:52:28;5.13;;;4.20;;
74612;SDS011;63119;51.788;8.824;2023-07-20T00:54:54;6.15;;;4.15;;
74612;SDS011;63119;51.788;8.824;2023-07-20T00:57:21;5.70;;;4.40;;
74612;SDS011;63119;51.788;8.824;2023-07-20T00:59:49;5.93;;;4.25;;
74612;SDS011;63119;51.788;8.824;2023-07-20T01:02:14;6.60;;;4.85;;
74612;SDS011;63119;51.788;8.824;2023-07-20T01:04:39;5.90;;;4.57;;
74612;SDS011;63119;51.788;8.824;2023-07-20T01:09:41;6.25;;;4.38;;
74612;SDS011;63119;51.788;8.824;2023-07-20T01:12:18;5.47;;;3.78;;
74612;SDS011;63119;51.788;8.824;2023-07-20T01:14:50;5.13;;;4.03;;
74612;SDS011;63119;51.788;8.824;2023-07-20T01:17:16;4.50;;;3.35;;
74612;SDS011;63119;51.788;8.824;2023-07-20T01:19:41;5.13;;;3.93;;
74612;SDS011;63119;51.788;8.824;2023-07-20T01:22:33;6.67;;;3.83;;
74612;SDS011;63119;51.788;8.824;2023-07-20T01:27:44;5.25;;;4.10;;
74612;SDS011;63119;51.788;8.824;2023-07-20T01:30:25;8.82;;;4.85;;
74612;SDS011;63119;51.788;8.824;2023-07-20T01:33:05;7.70;;;5.45;;
74612;SDS011;63119;51.788;8.824;2023-07-20T01:35:32;8.63;;;5.07;;
74612;SDS011;63119;51.788;8.824;2023-07-20T01:37:59;7.20;;;5.25;;
74612;SDS011;63119;51.788;8.824;2023-07-20T01:40:25;11.75;;;7.13;;
74612;SDS011;63119;51.788;8.824;2023-07-20T01:42:52;9.48;;;6.50;;
74612;SDS011;63119;51.788;8.824;2023-07-20T01:45:18;10.40;;;6.95;;
74612;SDS011;63119;51.788;8.824;2023-07-20T01:47:43;10.07;;;7.20;;
74612;SDS011;63119;51.788;8.824;2023-07-20T01:50:09;11.17;;;6.87;;
74612;SDS011;63119;51.788;8.824;2023-07-20T01:52:34;10.80;;;7.13;;
74612;SDS011;63119;51.788;8.824;2023-07-20T01:54:59;9.38;;;6.53;;
74612;SDS011;63119;51.788;8.824;2023-07-20T01:57:25;11.90;;;6.50;;
74612;SDS011;63119;51.788;8.824;2023-07-20T01:59:50;11.07;;;6.93;;
74612;SDS011;63119;51.788;8.824;2023-07-20T02:02:15;14.33;;;7.57;;
74612;SDS011;63119;51.788;8.824;2023-07-20T02:04:41;13.98;;;9.07;;
74612;SDS011;63119;51.788;8.824;2023-07-20T02:07:06;14.97;;;9.60;;
74612;SDS011;63119;51.788;8.824;2023-07-20T02:09:32;15.20;;;9.63;;
74612;SDS011;63119;51.788;8.824;2023-07-20T02:11:57;17.30;;;10.77;;
74612;SDS011;63119;51.788;8.824;2023-07-20T02:14:22;15.37;;;10.80;;
74612;SDS011;63119;51.788;8.824;2023-07-20T02:16:48;19.50;;;11.83;;
74612;SDS011;63119;51.788;8.824;2023-07-20T02:19:17;18.33;;;11.32;;
74612;SDS011;63119;51.788;8.824;2023-07-20T02:21:45;15.90;;;11.40;;
74612;SDS011;63119;51.788;8.824;2023-07-20T02:24:11;17.83;;;11.98;;
74612;SDS011;63119;51.788;8.824;2023-07-20T02:26:38;16.83;;;11.45;;
74612;SDS011;63119;51.788;8.824;2023-07-20T02:29:03;18.30;;;11.33;;
74612;SDS011;63119;51.788;8.824;2023-07-20T02:31:29;16.85;;;10.30;;
74612;SDS011;63119;51.788;8.824;2023-07-20T02:33:55;14.73;;;10.38;;
74612;SDS011;63119;51.788;8.824;2023-07-20T02:36:20;13.13;;;9.70;;
74612;SDS011;63119;51.788;8.824;2023-07-20T02:38:45;16.30;;;11.33;;
74612;SDS011;63119;51.788;8.824;2023-07-20T02:41:11;16.77;;;10.40;;
74612;SDS011;63119;51.788;8.824;2023-07-20T02:43:37;15.38;;;10.98;;
74612;SDS011;63119;51.788;8.824;2023-07-20T02:46:03;14.60;;;10.13;;
74612;SDS011;63119;51.788;8.824;2023-07-20T02:48:28;14.27;;;9.97;;
74612;SDS011;63119;51.788;8.824;2023-07-20T02:50:54;14.00;;;10.10;;
74612;SDS011;63119;51.788;8.824;2023-07-20T02:53:19;12.30;;;9.90;;
74612;SDS011;63119;51.788;8.824;2023-07-20T02:55:44;15.70;;;9.53;;
74612;SDS011;63119;51.788;8.824;2023-07-20T02:58:10;13.00;;;9.70;;
74612;SDS011;63119;51.788;8.824;2023-07-20T03:00:35;16.10;;;10.27;;
74612;SDS011;63119;51.788;8.824;2023-07-20T03:03:00;17.87;;;10.00;;
74612;SDS011;63119;51.788;8.824;2023-07-20T03:05:25;14.70;;;10.20;;
74612;SDS011;63119;51.788;8.824;2023-07-20T03:07:52;17.52;;;10.57;;
74612;SDS011;63119;51.788;8.824;2023-07-20T03:10:18;13.65;;;9.35;;
74612;SDS011;63119;51.788;8.824;2023-07-20T03:12:43;16.57;;;9.33;;
74612;SDS011;63119;51.788;8.824;2023-07-20T03:15:08;13.17;;;9.33;;
74612;SDS011;63119;51.788;8.824;2023-07-20T03:17:34;17.35;;;10.35;;
74612;SDS011;63119;51.788;8.824;2023-07-20T03:19:59;17.23;;;11.00;;
74612;SDS011;63119;51.788;8.824;2023-07-20T03:22:25;12.32;;;10.25;;
74612;SDS011;63119;51.788;8.824;2023-07-20T03:24:51;14.38;;;9.88;;
74612;SDS011;63119;51.788;8.824;2023-07-20T03:27:17;15.50;;;10.60;;
74612;SDS011;63119;51.788;8.824;2023-07-20T03:29:42;15.10;;;10.25;;
74612;SDS011;63119;51.788;8.824;2023-07-20T03:32:09;17.25;;;9.40;;
74612;SDS011;63119;51.788;8.824;2023-07-20T03:34:34;14.40;;;9.32;;
74612;SDS011;63119;51.788;8.824;2023-07-20T03:37:00;15.47;;;9.90;;
74612;SDS011;63119;51.788;8.824;2023-07-20T03:39:25;13.38;;;9.45;;
74612;SDS011;63119;51.788;8.824;2023-07-20T03:41:51;17.83;;;12.32;;
74612;SDS011;63119;51.788;8.824;2023-07-20T03:44:16;20.60;;;11.43;;
74612;SDS011;63119;51.788;8.824;2023-07-20T03:46:41;15.07;;;9.77;;
74612;SDS011;63119;51.788;8.824;2023-07-20T03:49:07;20.07;;;11.57;;
74612;SDS011;63119;51.788;8.824;2023-07-20T03:51:33;17.70;;;11.82;;
74612;SDS011;63119;51.788;8.824;2023-07-20T03:54:00;24.55;;;12.02;;
74612;SDS011;63119;51.788;8.824;2023-07-20T03:56:25;26.25;;;12.65;;
74612;SDS011;63119;51.788;8.824;2023-07-20T03:58:51;18.50;;;11.88;;
74612;SDS011;63119;51.788;8.824;2023-07-20T04:01:16;20.10;;;12.40;;
74612;SDS011;63119;51.788;8.824;2023-07-20T04:03:42;22.63;;;12.97;;
74612;SDS011;63119;51.788;8.824;2023-07-20T04:06:08;21.73;;;12.45;;
74612;SDS011;63119;51.788;8.824;2023-07-20T04:08:33;21.25;;;12.57;;
74612;SDS011;63119;51.788;8.824;2023-07-20T04:11:00;23.53;;;12.33;;
74612;SDS011;63119;51.788;8.824;2023-07-20T04:13:29;22.52;;;13.70;;
74612;SDS011;63119;51.788;8.824;2023-07-20T04:15:58;21.92;;;12.75;;
74612;SDS011;63119;51.788;8.824;2023-07-20T04:18:23;18.83;;;12.10;;
74612;SDS011;63119;51.788;8.824;2023-07-20T04:20:48;18.37;;;11.53;;
74612;SDS011;63119;51.788;8.824;2023-07-20T04:23:14;16.40;;;12.10;;
74612;SDS011;63119;51.788;8.824;2023-07-20T04:25:39;19.53;;;12.00;;
74612;SDS011;63119;51.788;8.824;2023-07-20T04:28:08;14.45;;;10.35;;
74612;SDS011;63119;51.788;8.824;2023-07-20T04:30:36;15.15;;;9.98;;
74612;SDS011;63119;51.788;8.824;2023-07-20T04:33:03;14.07;;;9.32;;
74612;SDS011;63119;51.788;8.824;2023-07-20T04:35:45;10.95;;;7.05;;
74612;SDS011;63119;51.788;8.824;2023-07-20T04:38:18;11.30;;;7.65;;
74612;SDS011;63119;51.788;8.824;2023-07-20T04:40:47;11.20;;;7.82;;
74612;SDS011;63119;51.788;8.824;2023-07-20T04:43:14;12.07;;;7.30;;
74612;SDS011;63119;51.788;8.824;2023-07-20T04:45:39;14.13;;;7.70;;
74612;SDS011;63119;51.788;8.824;2023-07-20T04:48:07;11.60;;;6.47;;
74612;SDS011;63119;51.788;8.824;2023-07-20T04:50:35;12.63;;;7.55;;
74612;SDS011;63119;51.788;8.824;2023-07-20T04:53:00;10.88;;;7.03;;
74612;SDS011;63119;51.788;8.824;2023-07-20T04:55:27;9.63;;;6.35;;
74612;SDS011;63119;51.788;8.824;2023-07-20T04:57:52;11.77;;;6.57;;
74612;SDS011;63119;51.788;8.824;2023-07-20T05:00:18;10.90;;;6.10;;
74612;SDS011;63119;51.788;8.824;2023-07-20T05:02:44;10.68;;;6.57;;
74612;SDS011;63119;51.788;8.824;2023-07-20T05:05:10;8.27;;;6.10;;
74612;SDS011;63119;51.788;8.824;2023-07-20T05:07:35;10.33;;;6.67;;
74612;SDS011;63119;51.788;8.824;2023-07-20T05:10:00;10.70;;;6.83;;
74612;SDS011;63119;51.788;8.824;2023-07-20T05:12:26;12.38;;;7.15;;
74612;SDS011;63119;51.788;8.824;2023-07-20T05:14:51;9.87;;;7.10;;
74612;SDS011;63119;51.788;8.824;2023-07-20T05:17:16;12.87;;;8.00;;
74612;SDS011;63119;51.788;8.824;2023-07-20T05:19:41;13.70;;;6.70;;
74612;SDS011;63119;51.788;8.824;2023-07-20T05:22:07;8.40;;;5.82;;
74612;SDS011;63119;51.788;8.824;2023-07-20T05:24:32;6.20;;;4.33;;
74612;SDS011;63119;51.788;8.824;2023-07-20T05:26:58;10.67;;;6.07;;
74612;SDS011;63119;51.788;8.824;2023-07-20T05:29:23;6.95;;;4.30;;
74612;SDS011;63119;51.788;8.824;2023-07-20T05:31:49;6.95;;;3.58;;
74612;SDS011;63119;51.788;8.824;2023-07-20T05:34:14;4.53;;;3.57;;
74612;SDS011;63119;51.788;8.824;2023-07-20T05:36:39;7.10;;;3.20;;
74612;SDS011;63119;51.788;8.824;2023-07-20T05:39:05;4.97;;;2.60;;
74612;SDS011;63119;51.788;8.824;2023-07-20T05:41:31;5.00;;;2.70;;
74612;SDS011;63119;51.788;8.824;2023-07-20T05:43:56;4.22;;;2.85;;
74612;SDS011;63119;51.788;8.824;2023-07-20T05:46:22;5.23;;;2.60;;
74612;SDS011;63119;51.788;8.824;2023-07-20T05:48:49;6.65;;;2.60;;
74612;SDS011;63119;51.788;8.824;2023-07-20T05:51:14;7.22;;;3.00;;
74612;SDS011;63119;51.788;8.824;2023-07-20T05:53:40;3.00;;;2.13;;
74612;SDS011;63119;51.788;8.824;2023-07-20T05:56:06;3.88;;;2.65;;
74612;SDS011;63119;51.788;8.824;2023-07-20T05:58:34;3.75;;;2.60;;
74612;SDS011;63119;51.788;8.824;2023-07-20T06:01:00;5.07;;;2.80;;
74612;SDS011;63119;51.788;8.824;2023-07-20T06:03:25;5.33;;;2.60;;
74612;SDS011;63119;51.788;8.824;2023-07-20T06:05:50;4.00;;;2.77;;
74612;SDS011;63119;51.788;8.824;2023-07-20T06:08:16;4.18;;;3.00;;
74612;SDS011;63119;51.788;8.824;2023-07-20T06:10:42;6.40;;;3.43;;
74612;SDS011;63119;51.788;8.824;2023-07-20T06:13:07;4.60;;;3.27;;
74612;SDS011;63119;51.788;8.824;2023-07-20T06:15:32;4.30;;;2.60;;
74612;SDS011;63119;51.788;8.824;2023-07-20T06:18:00;5.72;;;3.40;;
74612;SDS011;63119;51.788;8.824;2023-07-20T06:20:26;4.85;;;3.00;;
74612;SDS011;63119;51.788;8.824;2023-07-20T06:22:51;3.80;;;2.65;;
74612;SDS011;63119;51.788;8.824;2023-07-20T06:25:17;4.23;;;2.63;;
74612;SDS011;63119;51.788;8.824;2023-07-20T06:27:42;4.95;;;2.70;;
74612;SDS011;63119;51.788;8.824;2023-07-20T06:30:08;5.00;;;2.30;;
74612;SDS011;63119;51.788;8.824;2023-07-20T06:32:35;3.05;;;2.20;;
74612;SDS011;63119;51.788;8.824;2023-07-20T06:35:00;4.03;;;2.20;;
74612;SDS011;63119;51.788;8.824;2023-07-20T06:37:25;3.50;;;2.07;;
74612;SDS011;63119;51.788;8.824;2023-07-20T06:39:51;2.03;;;1.47;;
74612;SDS011;63119;51.788;8.824;2023-07-20T06:42:16;3.33;;;1.70;;
74612;SDS011;63119;51.788;8.824;2023-07-20T06:44:41;2.50;;;1.60;;
74612;SDS011;63119;51.788;8.824;2023-07-20T06:47:07;2.10;;;1.40;;
74612;SDS011;63119;51.788;8.824;2023-07-20T06:49:32;1.80;;;1.35;;
74612;SDS011;63119;51.788;8.824;2023-07-20T06:51:58;2.33;;;1.20;;
74612;SDS011;63119;51.788;8.824;2023-07-20T06:54:23;1.60;;;1.10;;
74612;SDS011;63119;51.788;8.824;2023-07-20T06:56:48;1.30;;;1.00;;
74612;SDS011;63119;51.788;8.824;2023-07-20T06:59:13;1.93;;;1.00;;
74612;SDS011;63119;51.788;8.824;2023-07-20T07:01:39;1.90;;;1.10;;
74612;SDS011;63119;51.788;8.824;2023-07-20T07:04:04;1.37;;;0.93;;
74612;SDS011;63119;51.788;8.824;2023-07-20T07:06:30;3.40;;;1.30;;
74612;SDS011;63119;51.788;8.824;2023-07-20T07:08:56;1.65;;;1.10;;
74612;SDS011;63119;51.788;8.824;2023-07-20T07:11:21;1.67;;;1.10;;
74612;SDS011;63119;51.788;8.824;2023-07-20T07:13:48;1.92;;;1.17;;
74612;SDS011;63119;51.788;8.824;2023-07-20T07:16:15;1.42;;;0.90;;
74612;SDS011;63119;51.788;8.824;2023-07-20T07:18:43;2.55;;;0.95;;
74612;SDS011;63119;51.788;8.824;2023-07-20T07:21:09;2.13;;;1.10;;
74612;SDS011;63119;51.788;8.824;2023-07-20T07:23:35;3.90;;;0.90;;
74612;SDS011;63119;51.788;8.824;2023-07-20T07:26:00;1.40;;;0.90;;
74612;SDS011;63119;51.788;8.824;2023-07-20T07:28:26;1.15;;;0.77;;
74612;SDS011;63119;51.788;8.824;2023-07-20T07:30:54;1.23;;;0.70;;
74612;SDS011;63119;51.788;8.824;2023-07-20T07:33:20;1.52;;;0.90;;
74612;SDS011;63119;51.788;8.824;2023-07-20T07:35:45;3.27;;;0.90;;
74612;SDS011;63119;51.788;8.824;2023-07-20T07:38:11;1.08;;;0.63;;
74612;SDS011;63119;51.788;8.824;2023-07-20T07:40:36;1.65;;;0.70;;
74612;SDS011;63119;51.788;8.824;2023-07-20T07:43:01;1.77;;;0.80;;
74612;SDS011;63119;51.788;8.824;2023-07-20T07:45:27;2.50;;;0.93;;
74612;SDS011;63119;51.788;8.824;2023-07-20T07:47:52;2.55;;;0.70;;
74612;SDS011;63119;51.788;8.824;2023-07-20T07:50:18;1.23;;;0.65;;
74612;SDS011;63119;51.788;8.824;2023-07-20T07:52:49;1.63;;;0.60;;
74612;SDS011;63119;51.788;8.824;2023-07-20T07:55:17;0.73;;;0.57;;
74612;SDS011;63119;51.788;8.824;2023-07-20T07:57:43;1.80;;;0.80;;
74612;SDS011;63119;51.788;8.824;2023-07-20T08:00:08;2.00;;;0.60;;
74612;SDS011;63119;51.788;8.824;2023-07-20T08:02:39;1.33;;;0.70;;
74612;SDS011;63119;51.788;8.824;2023-07-20T08:05:08;2.95;;;0.88;;
74612;SDS011;63119;51.788;8.824;2023-07-20T08:07:36;0.95;;;0.50;;
74612;SDS011;63119;51.788;8.824;2023-07-20T08:10:07;2.28;;;0.65;;
74612;SDS011;63119;51.788;8.824;2023-07-20T08:12:33;1.25;;;0.60;;
74612;SDS011;63119;51.788;8.824;2023-07-20T08:15:01;1.50;;;0.70;;
74612;SDS011;63119;51.788;8.824;2023-07-20T08:17:27;0.95;;;0.60;;
74612;SDS011;63119;51.788;8.824;2023-07-20T08:19:58;1.85;;;0.80;;
74612;SDS011;63119;51.788;8.824;2023-07-20T08:22:24;1.88;;;0.73;;
74612;SDS011;63119;51.788;8.824;2023-07-20T08:24:49;1.27;;;0.60;;
74612;SDS011;63119;51.788;8.824;2023-07-20T08:27:14;0.75;;;0.57;;
74612;SDS011;63119;51.788;8.824;2023-07-20T08:29:40;1.00;;;0.73;;
74612;SDS011;63119;51.788;8.824;2023-07-20T08:32:05;0.60;;;0.47;;
74612;SDS011;63119;51.788;8.824;2023-07-20T08:34:31;0.95;;;0.50;;
74612;SDS011;63119;51.788;8.824;2023-07-20T08:36:56;2.03;;;0.70;;
74612;SDS011;63119;51.788;8.824;2023-07-20T08:39:23;2.45;;;0.70;;
74612;SDS011;63119;51.788;8.824;2023-07-20T08:41:49;0.55;;;0.40;;
74612;SDS011;63119;51.788;8.824;2023-07-20T08:46:42;1.23;;;0.50;;
74612;SDS011;63119;51.788;8.824;2023-07-20T08:49:08;1.35;;;0.90;;
74612;SDS011;63119;51.788;8.824;2023-07-20T08:51:33;1.23;;;0.70;;
74612;SDS011;63119;51.788;8.824;2023-07-20T08:54:00;1.13;;;0.52;;
74612;SDS011;63119;51.788;8.824;2023-07-20T08:56:26;0.93;;;0.47;;
74612;SDS011;63119;51.788;8.824;2023-07-20T08:58:52;1.60;;;0.50;;
74612;SDS011;63119;51.788;8.824;2023-07-20T09:01:19;2.53;;;0.65;;
74612;SDS011;63119;51.788;8.824;2023-07-20T09:03:45;1.65;;;0.63;;
74612;SDS011;63119;51.788;8.824;2023-07-20T09:06:11;1.40;;;0.60;;
74612;SDS011;63119;51.788;8.824;2023-07-20T09:08:37;0.98;;;0.60;;
74612;SDS011;63119;51.788;8.824;2023-07-20T09:11:03;2.20;;;0.80;;
74612;SDS011;63119;51.788;8.824;2023-07-20T09:13:29;1.80;;;0.87;;
74612;SDS011;63119;51.788;8.824;2023-07-20T09:15:54;2.93;;;0.90;;
74612;SDS011;63119;51.788;8.824;2023-07-20T09:18:30;2.20;;;0.73;;
74612;SDS011;63119;51.788;8.824;2023-07-20T09:21:04;1.48;;;0.73;;
74612;SDS011;63119;51.788;8.824;2023-07-20T09:23:37;2.35;;;0.60;;
74612;SDS011;63119;51.788;8.824;2023-07-20T09:26:13;0.77;;;0.60;;
74612;SDS011;63119;51.788;8.824;2023-07-20T09:28:44;1.35;;;0.65;;
74612;SDS011;63119;51.788;8.824;2023-07-20T09:31:17;1.00;;;0.47;;
74612;SDS011;63119;51.788;8.824;2023-07-20T09:33:43;0.68;;;0.50;;
74612;SDS011;63119;51.788;8.824;2023-07-20T09:36:09;2.00;;;0.60;;
74612;SDS011;63119;51.788;8.824;2023-07-20T09:38:36;2.97;;;0.70;;
74612;SDS011;63119;51.788;8.824;2023-07-20T09:41:02;1.60;;;0.70;;
74612;SDS011;63119;51.788;8.824;2023-07-20T09:43:30;1.25;;;0.63;;
74612;SDS011;63119;51.788;8.824;2023-07-20T09:45:57;3.00;;;0.77;;
74612;SDS011;63119;51.788;8.824;2023-07-20T09:48:23;1.35;;;0.60;;
74612;SDS011;63119;51.788;8.824;2023-07-20T09:50:50;1.05;;;0.50;;
74612;SDS011;63119;51.788;8.824;2023-07-20T09:53:18;0.68;;;0.60;;
74612;SDS011;63119;51.788;8.824;2023-07-20T09:55:44;1.10;;;0.70;;
74612;SDS011;63119;51.788;8.824;2023-07-20T09:58:11;1.00;;;0.63;;
74612;SDS011;63119;51.788;8.824;2023-07-20T10:00:37;0.98;;;0.52;;
74612;SDS011;63119;51.788;8.824;2023-07-20T10:03:05;1.45;;;0.60;;
74612;SDS011;63119;51.788;8.824;2023-07-20T10:05:35;0.95;;;0.75;;
74612;SDS011;63119;51.788;8.824;2023-07-20T10:08:04;1.67;;;0.40;;
74612;SDS011;63119;51.788;8.824;2023-07-20T10:10:35;0.95;;;0.68;;
74612;SDS011;63119;51.788;8.824;2023-07-20T10:13:02;0.65;;;0.65;;
74612;SDS011;63119;51.788;8.824;2023-07-20T10:15:40;2.20;;;0.60;;
74612;SDS011;63119;51.788;8.824;2023-07-20T10:18:17;0.95;;;0.60;;
74612;SDS011;63119;51.788;8.824;2023-07-20T10:20:48;1.83;;;0.50;;
74612;SDS011;63119;51.788;8.824;2023-07-20T10:23:16;1.90;;;0.63;;
74612;SDS011;63119;51.788;8.824;2023-07-20T10:25:42;1.40;;;0.50;;
74612;SDS011;63119;51.788;8.824;2023-07-20T10:28:09;0.60;;;0.55;;
74612;SDS011;63119;51.788;8.824;2023-07-20T10:30:39;0.60;;;0.50;;
74612;SDS011;63119;51.788;8.824;2023-07-20T10:33:05;1.75;;;0.50;;
74612;SDS011;63119;51.788;8.824;2023-07-20T10:35:31;0.82;;;0.50;;
74612;SDS011;63119;51.788;8.824;2023-07-20T10:38:19;1.23;;;0.65;;
74612;SDS011;63119;51.788;8.824;2023-07-20T10:40:53;1.80;;;0.70;;
74612;SDS011;63119;51.788;8.824;2023-07-20T10:43:20;1.45;;;0.57;;
74612;SDS011;63119;51.788;8.824;2023-07-20T10:45:49;1.00;;;0.45;;
74612;SDS011;63119;51.788;8.824;2023-07-20T10:48:18;0.95;;;0.60;;
74612;SDS011;63119;51.788;8.824;2023-07-20T10:51:08;0.55;;;0.40;;
74612;SDS011;63119;51.788;8.824;2023-07-20T10:53:40;1.00;;;0.52;;
74612;SDS011;63119;51.788;8.824;2023-07-20T10:56:19;1.75;;;0.55;;
74612;SDS011;63119;51.788;8.824;2023-07-20T10:58:45;0.60;;;0.40;;
74612;SDS011;63119;51.788;8.824;2023-07-20T11:01:17;0.95;;;0.50;;
74612;SDS011;63119;51.788;8.824;2023-07-20T11:03:49;0.52;;;0.45;;
74612;SDS011;63119;51.788;8.824;2023-07-20T11:08:56;0.70;;;0.60;;
74612;SDS011;63119;51.788;8.824;2023-07-20T11:13:54;0.82;;;0.68;;
74612;SDS011;63119;51.788;8.824;2023-07-20T11:16:31;1.60;;;0.60;;
74612;SDS011;63119;51.788;8.824;2023-07-20T11:19:03;1.02;;;0.70;;
74612;SDS011;63119;51.788;8.824;2023-07-20T11:21:30;0.73;;;0.50;;
74612;SDS011;63119;51.788;8.824;2023-07-20T11:24:06;0.47;;;0.47;;
74612;SDS011;63119;51.788;8.824;2023-07-20T11:26:42;1.85;;;0.80;;
74612;SDS011;63119;51.788;8.824;2023-07-20T11:29:12;1.42;;;0.80;;
74612;SDS011;63119;51.788;8.824;2023-07-20T11:31:45;2.40;;;0.77;;
74612;SDS011;63119;51.788;8.824;2023-07-20T11:34:18;0.80;;;0.55;;
74612;SDS011;63119;51.788;8.824;2023-07-20T11:36:45;3.10;;;0.73;;
74612;SDS011;63119;51.788;8.824;2023-07-20T11:39:13;1.15;;;0.70;;
74612;SDS011;63119;51.788;8.824;2023-07-20T11:41:50;1.00;;;0.55;;
74612;SDS011;63119;51.788;8.824;2023-07-20T11:44:20;1.50;;;0.75;;
74612;SDS011;63119;51.788;8.824;2023-07-20T11:47:08;3.17;;;0.73;;
74612;SDS011;63119;51.788;8.824;2023-07-20T11:49:37;2.35;;;0.63;;
74612;SDS011;63119;51.788;8.824;2023-07-20T11:52:05;1.58;;;0.77;;
74612;SDS011;63119;51.788;8.824;2023-07-20T11:54:32;1.00;;;0.57;;
74612;SDS011;63119;51.788;8.824;2023-07-20T11:57:00;2.17;;;0.90;;
74612;SDS011;63119;51.788;8.824;2023-07-20T11:59:30;2.13;;;0.88;;
74612;SDS011;63119;51.788;8.824;2023-07-20T12:01:56;0.93;;;0.60;;
74612;SDS011;63119;51.788;8.824;2023-07-20T12:04:22;1.23;;;0.65;;
74612;SDS011;63119;51.788;8.824;2023-07-20T12:06:52;1.30;;;0.70;;
74612;SDS011;63119;51.788;8.824;2023-07-20T12:09:19;2.08;;;0.52;;
74612;SDS011;63119;51.788;8.824;2023-07-20T12:11:51;1.90;;;0.80;;
74612;SDS011;63119;51.788;8.824;2023-07-20T12:14:16;1.27;;;0.52;;
74612;SDS011;63119;51.788;8.824;2023-07-20T12:16:42;1.90;;;0.80;;
74612;SDS011;63119;51.788;8.824;2023-07-20T12:19:16;0.90;;;0.60;;
74612;SDS011;63119;51.788;8.824;2023-07-20T12:21:41;0.93;;;0.68;;
74612;SDS011;63119;51.788;8.824;2023-07-20T12:24:10;2.08;;;0.60;;
74612;SDS011;63119;51.788;8.824;2023-07-20T12:26:43;0.70;;;0.70;;
74612;SDS011;63119;51.788;8.824;2023-07-20T12:29:09;0.90;;;0.68;;
74612;SDS011;63119;51.788;8.824;2023-07-20T12:31:36;0.80;;;0.70;;
74612;SDS011;63119;51.788;8.824;2023-07-20T12:34:01;1.70;;;0.80;;
74612;SDS011;63119;51.788;8.824;2023-07-20T12:36:27;1.00;;;0.90;;
74612;SDS011;63119;51.788;8.824;2023-07-20T12:39:00;1.35;;;0.77;;
74612;SDS011;63119;51.788;8.824;2023-07-20T12:41:29;3.67;;;0.90;;
74612;SDS011;63119;51.788;8.824;2023-07-20T12:43:56;1.67;;;0.63;;
74612;SDS011;63119;51.788;8.824;2023-07-20T12:46:25;1.85;;;0.77;;
74612;SDS011;63119;51.788;8.824;2023-07-20T12:48:50;1.33;;;0.88;;
74612;SDS011;63119;51.788;8.824;2023-07-20T12:51:19;3.67;;;0.80;;
74612;SDS011;63119;51.788;8.824;2023-07-20T12:53:50;1.35;;;0.90;;
74612;SDS011;63119;51.788;8.824;2023-07-20T12:56:16;1.15;;;0.77;;
74612;SDS011;63119;51.788;8.824;2023-07-20T12:58:47;0.80;;;0.75;;
74612;SDS011;63119;51.788;8.824;2023-07-20T13:01:15;1.63;;;0.75;;
74612;SDS011;63119;51.788;8.824;2023-07-20T13:03:40;1.23;;;0.77;;
74612;SDS011;63119;51.788;8.824;2023-07-20T13:06:06;3.58;;;1.35;;
74612;SDS011;63119;51.788;8.824;2023-07-20T13:08:31;2.28;;;0.90;;
74612;SDS011;63119;51.788;8.824;2023-07-20T13:11:03;3.38;;;1.00;;
74612;SDS011;63119;51.788;8.824;2023-07-20T13:13:31;1.75;;;0.98;;
74612;SDS011;63119;51.788;8.824;2023-07-20T13:15:59;1.15;;;0.95;;
74612;SDS011;63119;51.788;8.824;2023-07-20T13:18:24;2.38;;;0.93;;
74612;SDS011;63119;51.788;8.824;2023-07-20T13:20:55;1.42;;;1.02;;
74612;SDS011;63119;51.788;8.824;2023-07-20T13:23:21;1.40;;;1.00;;
74612;SDS011;63119;51.788;8.824;2023-07-20T13:25:49;2.78;;;1.23;;
74612;SDS011;63119;51.788;8.824;2023-07-20T13:28:17;2.80;;;1.10;;
74612;SDS011;63119;51.788;8.824;2023-07-20T13:30:43;0.80;;;0.70;;
74612;SDS011;63119;51.788;8.824;2023-07-20T13:33:10;1.35;;;1.02;;
74612;SDS011;63119;51.788;8.824;2023-07-20T13:35:35;3.28;;;1.10;;
74612;SDS011;63119;51.788;8.824;2023-07-20T13:38:00;1.10;;;1.00;;
74612;SDS011;63119;51.788;8.824;2023-07-20T13:40:29;2.88;;;1.20;;
74612;SDS011;63119;51.788;8.824;2023-07-20T13:42:54;2.00;;;0.93;;
74612;SDS011;63119;51.788;8.824;2023-07-20T13:45:25;1.17;;;0.90;;
74612;SDS011;63119;51.788;8.824;2023-07-20T13:47:57;1.30;;;0.80;;
74612;SDS011;63119;51.788;8.824;2023-07-20T13:50:22;1.77;;;0.90;;
74612;SDS011;63119;51.788;8.824;2023-07-20T13:52:47;1.00;;;0.90;;
74612;SDS011;63119;51.788;8.824;2023-07-20T13:55:13;1.40;;;0.98;;
74612;SDS011;63119;51.788;8.824;2023-07-20T13:57:39;1.40;;;0.90;;
74612;SDS011;63119;51.788;8.824;2023-07-20T14:00:08;2.17;;;1.00;;
74612;SDS011;63119;51.788;8.824;2023-07-20T14:02:39;1.75;;;1.30;;
74612;SDS011;63119;51.788;8.824;2023-07-20T14:05:04;2.80;;;0.95;;
74612;SDS011;63119;51.788;8.824;2023-07-20T14:07:34;1.85;;;1.23;;
74612;SDS011;63119;51.788;8.824;2023-07-20T14:10:01;2.47;;;1.27;;
74612;SDS011;63119;51.788;8.824;2023-07-20T14:12:29;1.90;;;0.90;;
74612;SDS011;63119;51.788;8.824;2023-07-20T14:14:57;1.35;;;1.00;;
74612;SDS011;63119;51.788;8.824;2023-07-20T14:17:23;3.28;;;1.00;;
74612;SDS011;63119;51.788;8.824;2023-07-20T14:19:48;0.80;;;0.60;;
74612;SDS011;63119;51.788;8.824;2023-07-20T14:22:18;0.65;;;0.60;;
74612;SDS011;63119;51.788;8.824;2023-07-20T14:24:46;1.92;;;0.70;;
74612;SDS011;63119;51.788;8.824;2023-07-20T14:27:17;0.50;;;0.50;;
74612;SDS011;63119;51.788;8.824;2023-07-20T14:29:43;0.52;;;0.50;;
74612;SDS011;63119;51.788;8.824;2023-07-20T14:32:14;1.02;;;0.57;;
74612;SDS011;63119;51.788;8.824;2023-07-20T14:34:43;1.33;;;0.60;;
74612;SDS011;63119;51.788;8.824;2023-07-20T14:37:11;1.35;;;0.80;;
74612;SDS011;63119;51.788;8.824;2023-07-20T14:39:37;1.30;;;0.57;;
74612;SDS011;63119;51.788;8.824;2023-07-20T14:42:03;1.50;;;0.73;;
74612;SDS011;63119;51.788;8.824;2023-07-20T14:44:29;1.25;;;0.60;;
74612;SDS011;63119;51.788;8.824;2023-07-20T14:46:57;1.38;;;0.90;;
74612;SDS011;63119;51.788;8.824;2023-07-20T14:49:22;0.65;;;0.63;;
74612;SDS011;63119;51.788;8.824;2023-07-20T14:51:47;1.52;;;0.68;;
74612;SDS011;63119;51.788;8.824;2023-07-20T14:54:14;1.42;;;0.60;;
74612;SDS011;63119;51.788;8.824;2023-07-20T14:56:47;1.55;;;0.90;;